Time;durP1;ratioP1;P1;durP2;ratioP2;P2;SDS_P1;SDS_P2;PMS_P1;PMS_P2;Temp;Humidity;BMP_temperature;BMP_pressure;BME280_temperature;BME280_humidity;BME280_pressure;Samples;Min_cycle;Max_cycle;Signal;HPM_P1;HPM_P2
2022/08/15 00:01:25;;;;;;;8.63;7.80;;;20.50;99.90;;;;;;4993115;28;20042;-85
2022/08/15 00:03:55;;;;;;;9.57;8.48;;;20.50;99.90;;;;;;4994107;28;20426;-85
2022/08/15 00:06:26;;;;;;;12.48;7.38;;;20.50;99.90;;;;;;4973784;28;20157;-84
2022/08/15 00:08:56;;;;;;;10.05;7.15;;;20.50;99.90;;;;;;4972552;28;20036;-85
2022/08/15 00:11:25;;;;;;;10.38;7.32;;;20.40;99.90;;;;;;4993676;28;20039;-84
2022/08/15 00:14:02;;;;;;;8.55;7.65;;;20.40;99.90;;;;;;4992444;28;20035;-85
2022/08/15 00:16:35;;;;;;;9.32;7.75;;;20.40;99.90;;;;;;5009369;28;20054;-85
2022/08/15 00:19:07;;;;;;;8.40;7.60;;;20.40;99.90;;;;;;4992880;28;20053;-85
2022/08/15 00:21:35;;;;;;;9.40;7.50;;;20.30;99.90;;;;;;4973129;28;20086;-85
2022/08/15 00:24:01;;;;;;;8.38;7.53;;;20.40;99.90;;;;;;4974666;28;20117;-84
2022/08/15 00:26:27;;;;;;;10.27;8.00;;;20.20;99.90;;;;;;4992233;28;20101;-84
2022/08/15 00:28:53;;;;;;;13.65;7.70;;;20.20;99.90;;;;;;4991821;28;20397;-84
2022/08/15 00:31:19;;;;;;;8.95;8.13;;;20.30;99.90;;;;;;4994105;28;20042;-84
2022/08/15 00:33:44;;;;;;;13.98;9.63;;;20.20;99.90;;;;;;4993805;28;20548;-83
2022/08/15 00:36:10;;;;;;;10.63;9.52;;;20.20;99.90;;;;;;4993152;28;20058;-85
2022/08/15 00:38:36;;;;;;;12.35;9.20;;;20.20;99.90;;;;;;4993798;28;20125;-84
2022/08/15 00:43:56;;;;;;;14.98;9.48;;;20.20;99.90;;;;;;4993026;28;20497;-85
2022/08/15 00:46:22;;;;;;;11.13;9.25;;;20.00;99.90;;;;;;4993774;28;20061;-85
2022/08/15 00:48:50;;;;;;;10.65;9.65;;;20.10;99.90;;;;;;4976002;28;20046;-85
2022/08/15 00:51:34;;;;;;;11.00;9.93;;;20.10;99.90;;;;;;4993896;28;20047;-85
2022/08/15 00:54:08;;;;;;;12.82;9.50;;;20.00;99.90;;;;;;4992186;28;20437;-85
2022/08/15 00:56:44;;;;;;;10.20;9.07;;;20.00;99.90;;;;;;4992796;28;20058;-84
2022/08/15 00:59:14;;;;;;;15.15;9.02;;;20.00;99.90;;;;;;4992286;28;20057;-84
2022/08/15 01:01:41;;;;;;;9.05;8.15;;;19.90;99.90;;;;;;4993863;28;20504;-84
2022/08/15 01:04:10;;;;;;;9.43;8.52;;;19.90;99.90;;;;;;4996055;28;20486;-85
2022/08/15 01:06:37;;;;;;;10.63;8.00;;;19.90;99.90;;;;;;4996314;28;20478;-85
2022/08/15 01:09:06;;;;;;;12.77;9.30;;;19.90;99.90;;;;;;4996085;28;20042;-85
2022/08/15 01:11:37;;;;;;;9.65;8.73;;;19.90;99.90;;;;;;4995625;28;20133;-85
2022/08/15 01:14:06;;;;;;;10.65;9.55;;;19.90;99.90;;;;;;4997091;28;20149;-85
2022/08/15 01:16:34;;;;;;;12.30;8.55;;;19.80;99.90;;;;;;4996265;28;20398;-85
2022/08/15 01:19:04;;;;;;;9.35;8.38;;;19.90;99.90;;;;;;4995053;28;20057;-85
2022/08/15 01:21:38;;;;;;;9.70;8.60;;;19.90;99.90;;;;;;4997271;28;20042;-85
2022/08/15 01:24:47;;;;;;;11.80;7.78;;;19.80;99.90;;;;;;4996025;28;20085;-85
2022/08/15 01:27:15;;;;;;;11.52;8.93;;;19.70;99.90;;;;;;4975838;28;20042;-85
2022/08/15 01:29:41;;;;;;;9.82;7.60;;;19.70;99.90;;;;;;4996995;28;20050;-85
2022/08/15 01:32:07;;;;;;;12.80;7.78;;;19.60;99.90;;;;;;4978717;28;20042;-85
2022/08/15 01:34:33;;;;;;;11.85;8.95;;;19.60;99.90;;;;;;4996030;28;20073;-85
2022/08/15 01:36:59;;;;;;;9.30;8.07;;;19.60;99.90;;;;;;4996691;28;20038;-84
2022/08/15 01:39:33;;;;;;;11.23;9.40;;;19.70;99.90;;;;;;4995722;28;20035;-84
2022/08/15 01:42:13;;;;;;;12.85;11.55;;;19.60;99.90;;;;;;4979263;28;20053;-84
2022/08/15 01:44:50;;;;;;;16.95;11.50;;;19.70;99.90;;;;;;4996482;28;20584;-84
2022/08/15 01:47:34;;;;;;;12.88;11.15;;;19.60;99.90;;;;;;4994839;28;20465;-85
2022/08/15 01:50:07;;;;;;;13.98;12.57;;;19.70;99.90;;;;;;4995117;28;20080;-84
2022/08/15 01:52:51;;;;;;;12.02;10.48;;;19.70;99.90;;;;;;4994378;28;20054;-85
2022/08/15 01:55:19;;;;;;;11.40;10.25;;;19.70;99.90;;;;;;4976135;28;20133;-84
2022/08/15 01:57:44;;;;;;;16.30;11.95;;;19.60;99.90;;;;;;4975783;28;20049;-84
2022/08/15 02:00:11;;;;;;;13.13;11.30;;;19.60;99.90;;;;;;4995226;28;20052;-84
2022/08/15 02:02:37;;;;;;;15.57;11.82;;;19.50;99.90;;;;;;4995095;28;20046;-84
2022/08/15 02:05:05;;;;;;;12.93;11.65;;;19.50;99.90;;;;;;4995297;28;20069;-84
2022/08/15 02:07:31;;;;;;;16.65;12.65;;;19.60;99.90;;;;;;4994199;28;20152;-84
2022/08/15 02:09:57;;;;;;;15.77;12.70;;;19.70;99.90;;;;;;4996370;28;20481;-84
2022/08/15 02:12:36;;;;;;;15.57;13.00;;;19.70;99.90;;;;;;4995975;28;20038;-84
2022/08/15 02:15:08;;;;;;;14.60;13.15;;;19.70;99.90;;;;;;4993774;28;20046;-83
2022/08/15 02:17:34;;;;;;;17.52;15.00;;;19.70;99.90;;;;;;4996053;28;20127;-84
2022/08/15 02:20:00;;;;;;;15.70;13.48;;;19.70;99.90;;;;;;4996191;28;20140;-84
2022/08/15 02:22:27;;;;;;;14.80;13.40;;;19.70;99.90;;;;;;4977687;28;20042;-83
2022/08/15 02:24:57;;;;;;;14.00;12.60;;;19.70;99.90;;;;;;4995864;28;20050;-84
2022/08/15 02:27:25;;;;;;;27.13;14.27;;;19.70;99.90;;;;;;4993402;28;20125;-84
2022/08/15 02:29:50;;;;;;;15.48;13.80;;;19.80;99.90;;;;;;4995951;28;20049;-84
2022/08/15 02:32:17;;;;;;;16.52;14.77;;;19.80;99.90;;;;;;4995674;28;20046;-84
2022/08/15 02:34:46;;;;;;;18.17;12.85;;;19.80;99.90;;;;;;4993517;28;20058;-83
2022/08/15 02:37:18;;;;;;;15.93;14.32;;;19.80;99.90;;;;;;4995741;28;20137;-84
2022/08/15 02:39:46;;;;;;;16.15;14.32;;;19.80;99.90;;;;;;4995877;28;20052;-84
2022/08/15 02:42:14;;;;;;;18.58;15.05;;;19.90;99.90;;;;;;4993259;28;20096;-83
2022/08/15 02:44:40;;;;;;;16.60;14.93;;;19.80;99.90;;;;;;4993774;28;20050;-84
2022/08/15 02:47:07;;;;;;;16.38;14.80;;;19.80;99.90;;;;;;4995621;28;20046;-84
2022/08/15 02:49:33;;;;;;;16.73;14.95;;;20.00;99.90;;;;;;4994459;28;20046;-84
2022/08/15 02:52:00;;;;;;;16.60;14.88;;;20.00;99.90;;;;;;4995619;28;20049;-84
2022/08/15 02:54:27;;;;;;;16.38;14.27;;;20.00;99.90;;;;;;4995302;28;20053;-84
2022/08/15 02:56:54;;;;;;;20.05;15.18;;;20.00;99.90;;;;;;4993492;28;20390;-84
2022/08/15 02:59:21;;;;;;;19.77;14.55;;;20.10;99.90;;;;;;4993721;28;20050;-84
2022/08/15 03:01:47;;;;;;;17.40;14.07;;;20.10;99.90;;;;;;4994463;28;20042;-84
2022/08/15 03:04:16;;;;;;;15.70;13.90;;;20.10;99.90;;;;;;4976686;28;20449;-84
2022/08/15 03:06:43;;;;;;;16.08;14.48;;;20.10;99.90;;;;;;4995224;28;20133;-84
2022/08/15 03:09:12;;;;;;;18.83;13.95;;;20.00;99.90;;;;;;4993952;28;20062;-84
2022/08/15 03:11:40;;;;;;;16.17;14.63;;;20.00;99.90;;;;;;4994163;28;20564;-84
2022/08/15 03:14:08;;;;;;;16.20;13.35;;;20.10;99.90;;;;;;4993469;28;20057;-85
2022/08/15 03:16:42;;;;;;;14.43;11.90;;;20.00;99.90;;;;;;4993943;28;20092;-85
2022/08/15 03:19:08;;;;;;;15.90;14.30;;;20.10;99.90;;;;;;4989333;28;20129;-85
2022/08/15 03:21:36;;;;;;;14.95;13.27;;;20.00;99.90;;;;;;4977430;28;20182;-85
2022/08/15 03:24:03;;;;;;;20.48;14.40;;;20.00;99.90;;;;;;4992388;28;20049;-85
2022/08/15 03:26:30;;;;;;;14.32;12.82;;;20.00;99.90;;;;;;4992776;28;20054;-85
2022/08/15 03:28:57;;;;;;;15.52;13.40;;;19.90;99.90;;;;;;4994295;28;20038;-85
2022/08/15 03:31:23;;;;;;;15.35;13.75;;;19.90;99.90;;;;;;4993984;28;20038;-85
2022/08/15 03:33:49;;;;;;;15.15;13.75;;;19.90;99.90;;;;;;4993081;28;20046;-85
2022/08/15 03:36:19;;;;;;;15.18;13.55;;;19.80;99.90;;;;;;4993209;28;20109;-85
2022/08/15 03:38:45;;;;;;;16.38;14.15;;;19.80;99.90;;;;;;4993358;28;20108;-85
2022/08/15 03:41:13;;;;;;;18.45;14.85;;;19.80;99.90;;;;;;4993296;28;20101;-85
2022/08/15 03:43:40;;;;;;;17.48;15.55;;;19.80;99.90;;;;;;4993388;28;20097;-85
2022/08/15 03:46:12;;;;;;;17.52;13.80;;;19.60;99.90;;;;;;4994075;28;20054;-85
2022/08/15 03:48:40;;;;;;;15.00;13.40;;;19.70;99.90;;;;;;4976984;28;20047;-85
2022/08/15 03:51:08;;;;;;;38.30;14.35;;;19.60;99.90;;;;;;4993226;28;20505;-84
2022/08/15 03:53:41;;;;;;;14.82;12.52;;;19.60;99.90;;;;;;4994016;28;20053;-84
2022/08/15 03:56:07;;;;;;;16.05;12.48;;;19.50;99.90;;;;;;4994460;28;20085;-84
2022/08/15 03:58:33;;;;;;;16.65;12.77;;;19.50;99.90;;;;;;4992763;28;20089;-85
2022/08/15 04:00:59;;;;;;;17.17;13.20;;;19.40;99.90;;;;;;4992445;28;20038;-85
2022/08/15 04:03:29;;;;;;;13.77;12.48;;;19.50;99.90;;;;;;4993079;28;20074;-85
2022/08/15 04:05:57;;;;;;;14.82;12.98;;;19.30;99.90;;;;;;4992414;28;20568;-85
2022/08/15 04:08:25;;;;;;;16.65;12.63;;;19.30;99.90;;;;;;4992725;28;20485;-85
2022/08/15 04:10:52;;;;;;;14.20;12.63;;;19.40;99.90;;;;;;4976201;28;20094;-85
2022/08/15 04:13:23;;;;;;;13.32;12.13;;;19.30;99.90;;;;;;4992121;28;20383;-84
2022/08/15 04:15:49;;;;;;;13.20;11.73;;;19.30;99.90;;;;;;4992782;28;20042;-85
2022/08/15 04:18:15;;;;;;;12.18;10.88;;;19.10;99.90;;;;;;4994031;28;20169;-85
2022/08/15 04:20:42;;;;;;;13.32;11.15;;;19.20;99.90;;;;;;4992377;28;20045;-85
2022/08/15 04:23:09;;;;;;;16.33;11.35;;;19.10;99.90;;;;;;4993949;28;20148;-84
2022/08/15 04:25:38;;;;;;;14.52;11.60;;;19.10;99.90;;;;;;4993568;28;20042;-85
2022/08/15 04:28:05;;;;;;;13.38;11.68;;;19.00;99.90;;;;;;4993194;28;20061;-85
2022/08/15 04:30:36;;;;;;;14.27;11.65;;;19.00;99.90;;;;;;4993641;28;20505;-85
2022/08/15 04:33:21;;;;;;;15.45;11.65;;;19.00;99.90;;;;;;4994217;28;20042;-85
2022/08/15 04:35:59;;;;;;;17.00;11.95;;;18.90;99.90;;;;;;4991700;28;20406;-85
2022/08/15 04:38:25;;;;;;;12.18;11.02;;;18.90;99.90;;;;;;4996795;28;20046;-85
2022/08/15 04:40:54;;;;;;;12.40;10.30;;;18.80;99.90;;;;;;4980242;28;20494;-85
2022/08/15 04:43:21;;;;;;;11.73;8.90;;;18.80;99.90;;;;;;4979955;28;20053;-85
2022/08/15 04:45:47;;;;;;;13.23;10.40;;;18.80;99.90;;;;;;4996415;28;20471;-85
2022/08/15 04:48:16;;;;;;;11.63;9.38;;;18.80;99.90;;;;;;4995937;28;20109;-85
2022/08/15 04:50:45;;;;;;;12.35;9.88;;;18.70;99.90;;;;;;4996399;28;20485;-85
2022/08/15 04:53:12;;;;;;;19.70;10.20;;;18.80;99.90;;;;;;4996359;28;20058;-85
2022/08/15 04:55:43;;;;;;;12.90;10.57;;;18.80;99.90;;;;;;4978934;28;20057;-85
2022/08/15 04:58:24;;;;;;;14.82;10.38;;;18.70;99.90;;;;;;4981856;28;20050;-85
2022/08/15 05:00:58;;;;;;;15.00;11.00;;;18.80;99.90;;;;;;4990730;28;20049;-85
2022/08/15 05:03:25;;;;;;;11.05;10.05;;;18.90;99.90;;;;;;4978462;28;20122;-84
2022/08/15 05:06:00;;;;;;;11.77;10.57;;;18.90;99.90;;;;;;4993335;28;20046;-84
2022/08/15 05:08:30;;;;;;;12.35;10.82;;;18.90;99.90;;;;;;4996688;28;20042;-84
2022/08/15 05:11:00;;;;;;;12.23;10.45;;;19.00;99.90;;;;;;4994613;28;20054;-85
2022/08/15 05:13:29;;;;;;;13.30;10.63;;;19.10;99.90;;;;;;4984145;28;20055;-84
2022/08/15 05:15:57;;;;;;;12.82;11.25;;;19.10;99.90;;;;;;4996080;28;20129;-84
2022/08/15 05:18:24;;;;;;;14.68;12.05;;;19.10;99.90;;;;;;4996246;28;20050;-84
2022/08/15 05:20:51;;;;;;;14.65;12.80;;;19.20;99.90;;;;;;4996305;28;20050;-84
2022/08/15 05:23:19;;;;;;;14.85;12.90;;;19.20;99.90;;;;;;4994950;28;20053;-84
2022/08/15 05:25:49;;;;;;;12.80;11.50;;;19.40;99.90;;;;;;4979378;28;20073;-84
2022/08/15 05:28:15;;;;;;;14.25;12.73;;;19.40;99.90;;;;;;4979673;28;20050;-83
2022/08/15 05:30:41;;;;;;;18.88;13.10;;;19.40;99.90;;;;;;4995081;28;20050;-83
2022/08/15 05:33:27;;;;;;;15.48;12.20;;;19.50;99.90;;;;;;4995586;28;20458;-83
2022/08/15 05:35:56;;;;;;;16.40;13.15;;;19.50;99.90;;;;;;4996603;28;20055;-83
2022/08/15 05:38:26;;;;;;;17.23;12.93;;;19.50;99.90;;;;;;4994917;28;20050;-82
2022/08/15 05:41:09;;;;;;;15.50;13.23;;;19.60;99.90;;;;;;4995488;28;20542;-82
2022/08/15 05:43:41;;;;;;;18.52;14.18;;;19.70;99.90;;;;;;4977334;28;20061;-82
2022/08/15 05:46:32;;;;;;;16.60;14.90;;;19.70;99.90;;;;;;4976837;28;20478;-82
2022/08/15 05:49:20;;;;;;;16.52;14.82;;;19.70;99.90;;;;;;4996052;28;20053;-82
2022/08/15 05:51:51;;;;;;;18.13;16.23;;;19.80;99.90;;;;;;4994400;28;20118;-82
2022/08/15 05:54:36;;;;;;;17.45;15.75;;;19.90;99.90;;;;;;4996204;28;20053;-82
2022/08/15 05:57:15;;;;;;;17.52;15.35;;;20.00;99.90;;;;;;4994589;28;20069;-82
2022/08/15 05:59:47;;;;;;;20.75;15.10;;;20.00;99.90;;;;;;4991368;28;20078;-82
2022/08/15 06:02:31;;;;;;;16.27;14.60;;;20.10;99.90;;;;;;4986381;28;20101;-82
2022/08/15 06:05:26;;;;;;;17.23;14.88;;;20.20;99.90;;;;;;4993855;28;20122;-83
2022/08/15 06:07:52;;;;;;;17.52;15.90;;;20.30;99.90;;;;;;4973550;28;20077;-83
2022/08/15 06:10:25;;;;;;;22.92;15.45;;;20.40;99.90;;;;;;4990997;28;20046;-83
2022/08/15 06:13:07;;;;;;;21.73;16.52;;;20.60;99.90;;;;;;4994140;28;20054;-83
2022/08/15 06:15:46;;;;;;;17.67;15.88;;;20.70;99.90;;;;;;4996164;28;20038;-83
2022/08/15 06:18:14;;;;;;;17.65;15.90;;;20.80;99.90;;;;;;4995502;28;20387;-83
2022/08/15 06:21:06;;;;;;;16.85;14.88;;;21.00;99.90;;;;;;4994963;28;20478;-83
2022/08/15 06:23:34;;;;;;;16.30;14.60;;;21.10;99.90;;;;;;4994766;28;20459;-84
2022/08/15 06:26:28;;;;;;;17.65;15.88;;;21.10;99.90;;;;;;4994389;28;20050;-83
2022/08/15 06:29:05;;;;;;;17.65;14.80;;;21.20;99.90;;;;;;4994834;28;20109;-83
2022/08/15 06:31:34;;;;;;;18.92;15.43;;;21.30;99.90;;;;;;4995562;28;20054;-84
2022/08/15 06:34:20;;;;;;;18.85;16.15;;;21.30;99.90;;;;;;4994900;28;20461;-83
2022/08/15 06:37:11;;;;;;;17.48;14.82;;;21.30;99.90;;;;;;4994362;28;20056;-84
2022/08/15 06:40:04;;;;;;;19.00;17.00;;;21.40;99.90;;;;;;4982754;28;20050;-83
2022/08/15 06:42:45;;;;;;;17.60;14.65;;;21.40;99.90;;;;;;4976664;28;20088;-83
2022/08/15 06:45:26;;;;;;;15.73;13.93;;;21.50;99.90;;;;;;4976151;28;20549;-83
2022/08/15 06:47:59;;;;;;;15.25;13.65;;;21.50;99.90;;;;;;4975628;28;20558;-83
2022/08/15 06:50:33;;;;;;;17.45;14.02;;;21.60;99.90;;;;;;4975964;28;20081;-83
2022/08/15 06:53:18;;;;;;;14.05;12.55;;;21.70;99.90;;;;;;4975671;28;20498;-83
2022/08/15 06:55:52;;;;;;;14.10;12.70;;;21.80;99.90;;;;;;4994261;28;20050;-84
2022/08/15 06:58:42;;;;;;;14.10;12.43;;;21.90;99.90;;;;;;4995157;28;20053;-84
2022/08/15 07:01:41;;;;;;;17.65;12.43;;;22.10;99.90;;;;;;4977483;28;20058;-83
2022/08/15 07:04:26;;;;;;;27.25;11.82;;;22.20;99.90;;;;;;4993859;28;20054;-84
2022/08/15 07:07:00;;;;;;;13.43;9.85;;;22.30;99.90;;;;;;4995278;28;20050;-84
2022/08/15 07:09:53;;;;;;;12.95;9.80;;;22.40;99.90;;;;;;4976930;28;20545;-84
2022/08/15 07:12:26;;;;;;;11.13;9.57;;;22.50;99.90;;;;;;4977442;28;20042;-84
2022/08/15 07:14:58;;;;;;;10.63;9.60;;;22.60;99.90;;;;;;4994070;28;20046;-84
2022/08/15 07:17:33;;;;;;;11.70;9.18;;;22.70;99.90;;;;;;4991732;28;20050;-83
2022/08/15 07:19:59;;;;;;;10.70;8.48;;;22.80;99.90;;;;;;4994862;28;20042;-84
2022/08/15 07:22:25;;;;;;;12.77;9.00;;;22.90;99.90;;;;;;4993417;28;20050;-84
2022/08/15 07:24:55;;;;;;;9.00;8.15;;;23.00;99.90;;;;;;4992822;28;20050;-83
2022/08/15 07:27:32;;;;;;;9.30;8.30;;;23.20;99.90;;;;;;4977500;28;20113;-83
2022/08/15 07:30:04;;;;;;;12.63;9.15;;;23.20;99.90;;;;;;4994173;28;20120;-84
2022/08/15 07:32:51;;;;;;;11.07;9.52;;;23.30;99.90;;;;;;4994426;28;20050;-83
2022/08/15 07:35:25;;;;;;;9.88;8.35;;;23.40;99.90;;;;;;4993326;28;20080;-83
2022/08/15 07:37:58;;;;;;;13.23;8.73;;;23.50;99.90;;;;;;4992465;28;20042;-83
2022/08/15 07:40:36;;;;;;;9.95;8.68;;;23.50;99.90;;;;;;4977178;28;20047;-84
2022/08/15 07:43:22;;;;;;;10.80;8.32;;;23.60;99.90;;;;;;4994531;28;20046;-84
2022/08/15 07:45:47;;;;;;;12.00;8.70;;;23.60;99.90;;;;;;4993857;28;20093;-84
2022/08/15 07:48:26;;;;;;;12.25;9.40;;;23.70;99.90;;;;;;4994405;28;20049;-83
2022/08/15 07:51:28;;;;;;;10.05;8.55;;;23.80;99.90;;;;;;4992816;28;20058;-83
2022/08/15 07:54:04;;;;;;;9.65;8.07;;;23.90;99.90;;;;;;4953751;29;20410;-84
2022/08/15 07:56:32;;;;;;;9.77;8.88;;;23.90;99.90;;;;;;4989150;28;20101;-84
2022/08/15 07:59:20;;;;;;;10.90;8.90;;;24.10;99.90;;;;;;4992336;28;20042;-83
2022/08/15 08:01:47;;;;;;;14.13;8.90;;;24.20;99.90;;;;;;4992475;28;20041;-83
2022/08/15 08:04:21;;;;;;;9.77;8.73;;;24.30;99.90;;;;;;4993085;28;20080;-83
2022/08/15 08:06:52;;;;;;;10.20;9.07;;;24.30;99.90;;;;;;4993551;28;20049;-83
2022/08/15 08:09:29;;;;;;;10.07;7.72;;;24.40;99.90;;;;;;4992869;28;20060;-84
2022/08/15 08:12:07;;;;;;;8.35;7.55;;;24.50;99.90;;;;;;4994042;28;20042;-83
2022/08/15 08:14:43;;;;;;;10.60;8.23;;;24.60;99.90;;;;;;4993970;28;20057;-84
2022/08/15 08:17:18;;;;;;;10.35;9.15;;;24.60;99.90;;;;;;4994327;28;20088;-84
2022/08/15 08:19:55;;;;;;;16.80;8.15;;;24.60;99.90;;;;;;4975609;28;20556;-85
2022/08/15 08:22:33;;;;;;;9.98;7.68;;;24.70;99.90;;;;;;4993521;28;20042;-83
2022/08/15 08:25:05;;;;;;;10.30;9.02;;;24.70;99.90;;;;;;4992541;28;20074;-83
2022/08/15 08:27:55;;;;;;;10.00;8.40;;;24.70;99.90;;;;;;4982838;28;20470;-83
2022/08/15 08:30:24;;;;;;;13.20;9.25;;;24.80;99.90;;;;;;4994175;28;20046;-83
2022/08/15 08:33:04;;;;;;;9.00;8.10;;;24.90;99.90;;;;;;4992549;28;20043;-83
2022/08/15 08:36:01;;;;;;;13.57;9.38;;;24.90;99.90;;;;;;4993429;28;20510;-84
2022/08/15 08:38:41;;;;;;;10.68;8.45;;;25.00;99.90;;;;;;4987894;28;20430;-84
2022/08/15 08:41:28;;;;;;;15.07;8.98;;;25.10;99.90;;;;;;4981139;28;20038;-82
2022/08/15 08:44:00;;;;;;;10.40;8.55;;;25.10;99.90;;;;;;4992677;28;20441;-84
2022/08/15 08:46:45;;;;;;;11.07;10.02;;;25.20;99.90;;;;;;4994107;28;20104;-82
2022/08/15 08:49:14;;;;;;;12.18;8.98;;;25.30;99.90;;;;;;4991615;28;20058;-83
2022/08/15 08:52:08;;;;;;;14.02;8.40;;;25.30;99.90;;;;;;4993140;28;20550;-82
2022/08/15 08:54:48;;;;;;;10.23;8.55;;;25.40;99.90;;;;;;4992927;28;20449;-84
2022/08/15 08:57:20;;;;;;;10.32;9.00;;;25.40;99.90;;;;;;4992276;28;20042;-82
2022/08/15 08:59:50;;;;;;;9.68;8.73;;;25.50;99.90;;;;;;4976176;28;20073;-83
2022/08/15 09:02:34;;;;;;;10.85;9.85;;;25.50;99.90;;;;;;4991486;28;20050;-86
2022/08/15 09:05:09;;;;;;;11.35;9.13;;;25.60;99.90;;;;;;4992162;28;20050;-86
2022/08/15 09:07:40;;;;;;;9.52;8.20;;;25.60;99.90;;;;;;4992234;28;20497;-86
2022/08/15 09:10:07;;;;;;;14.63;8.52;;;25.70;99.90;;;;;;4975144;28;20482;-83
2022/08/15 09:15:31;;;;;;;11.43;8.98;;;25.70;99.90;;;;;;4992585;28;20044;-82
2022/08/15 09:18:08;;;;;;;9.93;9.02;;;25.80;99.90;;;;;;4993303;28;20054;-83
2022/08/15 09:20:37;;;;;;;12.52;9.10;;;25.80;99.90;;;;;;4976362;28;20112;-84
2022/08/15 09:23:09;;;;;;;13.30;9.43;;;25.80;99.90;;;;;;4976069;28;20445;-83
2022/08/15 09:25:42;;;;;;;10.25;9.20;;;25.90;99.90;;;;;;4996795;28;20126;-83
2022/08/15 09:28:39;;;;;;;9.70;8.80;;;25.90;99.90;;;;;;4995980;28;20046;-83
2022/08/15 09:31:19;;;;;;;21.20;9.85;;;25.90;99.90;;;;;;4988072;28;20069;-83
2022/08/15 09:34:08;;;;;;;13.73;9.23;;;26.00;99.90;;;;;;4979701;28;20053;-84
2022/08/15 09:36:52;;;;;;;13.18;9.00;;;26.00;99.90;;;;;;4994252;28;20054;-83
2022/08/15 09:39:38;;;;;;;;;;;26.10;99.90;;;;;;4996068;28;20053;-83
2022/08/15 09:42:27;;;;;;;9.88;8.98;;;26.10;99.90;;;;;;4996484;28;19921;-83
2022/08/15 09:45:20;;;;;;;11.23;9.90;;;26.20;99.90;;;;;;4995877;28;20050;-84
2022/08/15 09:47:51;;;;;;;12.77;9.00;;;26.20;99.90;;;;;;4980810;28;20050;-83
2022/08/15 09:50:40;;;;;;;10.13;8.55;;;26.30;99.90;;;;;;4977813;28;20042;-83
2022/08/15 09:53:29;;;;;;;11.90;10.07;;;26.40;99.90;;;;;;4995002;28;20061;-82
2022/08/15 09:56:03;;;;;;;13.95;9.18;;;26.40;99.90;;;;;;4995444;28;20057;-83
2022/08/15 09:58:35;;;;;;;10.05;9.10;;;26.40;99.90;;;;;;4978325;28;20165;-83
2022/08/15 10:01:29;;;;;;;9.55;8.65;;;26.40;99.90;;;;;;4994565;28;20038;-85
2022/08/15 10:04:12;;;;;;;10.98;8.63;;;26.40;99.90;;;;;;4983863;28;20058;-84
2022/08/15 10:07:08;;;;;;;9.73;7.80;;;26.50;99.90;;;;;;4994549;28;20042;-83
2022/08/15 10:09:55;;;;;;;9.15;8.30;;;26.50;99.90;;;;;;4987634;28;20401;-83
2022/08/15 10:12:23;;;;;;;10.52;9.50;;;26.50;99.90;;;;;;4992970;28;20387;-84
2022/08/15 10:14:51;;;;;;;15.00;7.47;;;26.50;99.90;;;;;;4996417;28;20042;-84
2022/08/15 10:17:33;;;;;;;8.95;8.05;;;26.60;99.90;;;;;;4996265;28;20039;-82
2022/08/15 10:20:19;;;;;;;8.85;7.07;;;26.70;99.90;;;;;;4995302;28;20045;-82
2022/08/15 10:22:50;;;;;;;17.25;9.55;;;26.70;99.90;;;;;;5000342;28;20152;-82
2022/08/15 10:25:22;;;;;;;9.80;8.18;;;26.80;99.90;;;;;;5011226;28;20050;-82
2022/08/15 10:28:18;;;;;;;10.93;8.30;;;26.70;99.90;;;;;;5010578;28;20121;-83
2022/08/15 10:31:02;;;;;;;9.65;8.63;;;26.70;99.90;;;;;;4978583;28;20073;-83
2022/08/15 10:33:31;;;;;;;;;;;26.70;99.90;;;;;;4995451;28;20393;-83
2022/08/15 10:36:15;;;;;;;11.82;8.38;;;26.60;99.90;;;;;;4994168;28;19937;-83
2022/08/15 10:39:16;;;;;;;12.55;7.65;;;26.60;99.90;;;;;;4978792;28;20134;-83
2022/08/15 10:42:13;;;;;;;13.38;8.80;;;26.60;99.90;;;;;;4994627;28;20109;-83
2022/08/15 10:45:11;;;;;;;12.27;7.93;;;26.50;99.90;;;;;;4986184;28;20054;-84
2022/08/15 10:47:43;;;;;;;10.35;8.55;;;26.40;99.90;;;;;;4992766;28;20050;-84
2022/08/15 10:50:45;;;;;;;8.80;7.30;;;26.40;99.90;;;;;;4994271;28;20402;-84
2022/08/15 10:53:14;;;;;;;9.55;8.55;;;26.40;99.90;;;;;;4993883;28;20080;-84
2022/08/15 10:55:41;;;;;;;8.85;7.97;;;26.30;99.90;;;;;;4993064;28;20047;-83
2022/08/15 10:58:17;;;;;;;8.63;7.78;;;26.20;99.90;;;;;;4994889;28;20056;-83
2022/08/15 11:00:53;;;;;;;8.93;7.85;;;26.10;99.90;;;;;;4994512;28;20073;-84
2022/08/15 11:03:55;;;;;;;12.45;9.18;;;26.00;99.90;;;;;;4995285;28;20050;-84
2022/08/15 11:06:23;;;;;;;13.10;8.10;;;25.90;99.90;;;;;;4994083;28;20058;-85
2022/08/15 11:08:53;;;;;;;10.18;8.48;;;25.80;99.90;;;;;;4992987;28;20382;-85
2022/08/15 11:11:25;;;;;;;10.90;9.57;;;25.70;99.90;;;;;;4993641;28;20054;-84
2022/08/15 11:13:56;;;;;;;13.15;9.85;;;25.60;99.90;;;;;;4977342;28;20056;-86
2022/08/15 11:16:35;;;;;;;15.90;9.93;;;25.40;99.90;;;;;;4992932;28;20114;-84
2022/08/15 11:19:17;;;;;;;11.45;9.60;;;25.20;99.90;;;;;;4993491;28;20049;-84
2022/08/15 11:21:49;;;;;;;19.63;10.48;;;25.00;99.90;;;;;;4993237;28;20038;-84
2022/08/15 11:24:33;;;;;;;11.85;10.63;;;24.90;99.90;;;;;;4993450;28;20054;-84
2022/08/15 11:27:24;;;;;;;11.82;9.38;;;24.80;99.90;;;;;;4989214;28;20557;-84
2022/08/15 11:29:52;;;;;;;19.63;9.60;;;24.70;99.90;;;;;;4992693;28;20050;-84
2022/08/15 11:32:34;;;;;;;11.02;9.80;;;24.60;99.90;;;;;;4992971;28;20077;-84
2022/08/15 11:35:03;;;;;;;12.80;10.93;;;24.60;99.90;;;;;;4993246;28;20091;-85
2022/08/15 11:37:37;;;;;;;12.52;10.73;;;24.50;99.90;;;;;;4992442;28;20486;-85
2022/08/15 11:40:18;;;;;;;11.97;10.73;;;24.50;99.90;;;;;;4976718;28;20089;-84
2022/08/15 11:42:46;;;;;;;12.38;11.10;;;24.60;99.90;;;;;;4992543;28;20126;-84
2022/08/15 11:45:22;;;;;;;13.10;11.35;;;24.50;99.90;;;;;;4993477;28;20050;-84
2022/08/15 11:47:53;;;;;;;12.77;11.48;;;24.50;99.90;;;;;;4992704;28;20047;-84
2022/08/15 11:50:27;;;;;;;17.13;11.15;;;24.60;99.90;;;;;;4992385;28;20054;-85
2022/08/15 11:52:56;;;;;;;12.15;10.48;;;24.50;99.90;;;;;;4976923;28;20081;-85
2022/08/15 11:55:25;;;;;;;10.00;8.93;;;24.20;99.90;;;;;;4993061;28;20176;-85
2022/08/15 11:57:59;;;;;;;13.23;7.97;;;24.60;99.90;;;;;;4993423;28;20397;-85
2022/08/15 12:00:37;;;;;;;14.43;8.30;;;24.50;99.90;;;;;;4993855;28;20406;-84
2022/08/15 12:03:25;;;;;;;11.07;7.50;;;24.50;99.90;;;;;;4992440;28;20066;-85
2022/08/15 12:06:13;;;;;;;7.78;7.00;;;24.70;99.90;;;;;;4991563;28;20077;-84
2022/08/15 12:08:41;;;;;;;8.00;6.28;;;24.70;99.90;;;;;;4992563;28;20169;-84
2022/08/15 12:11:12;;;;;;;6.65;5.78;;;24.70;99.90;;;;;;4992842;28;20081;-84
2022/08/15 12:13:59;;;;;;;13.45;6.18;;;24.80;99.90;;;;;;4993849;28;20041;-84
2022/08/15 12:16:55;;;;;;;6.65;5.97;;;24.90;99.90;;;;;;4974175;28;20114;-84
2022/08/15 12:19:34;;;;;;;6.60;5.90;;;24.90;99.90;;;;;;4970731;28;20498;-84
2022/08/15 12:22:13;;;;;;;6.85;5.65;;;25.00;99.90;;;;;;4992801;28;20058;-84
2022/08/15 12:24:43;;;;;;;9.88;5.25;;;25.00;99.90;;;;;;4993842;28;20089;-84
2022/08/15 12:27:11;;;;;;;6.93;5.18;;;25.10;99.90;;;;;;4993190;28;20053;-84
2022/08/15 12:29:38;;;;;;;7.03;5.18;;;25.10;99.90;;;;;;4992593;28;20054;-84
2022/08/15 12:32:07;;;;;;;5.50;4.70;;;25.20;99.90;;;;;;4993343;28;20035;-84
2022/08/15 12:34:36;;;;;;;5.25;4.85;;;25.20;99.90;;;;;;4975727;28;20058;-85
2022/08/15 12:37:08;;;;;;;7.55;5.28;;;25.30;99.90;;;;;;4993879;28;20038;-85
2022/08/15 12:39:49;;;;;;;6.47;5.82;;;25.40;99.90;;;;;;4991303;28;20054;-85
2022/08/15 12:42:22;;;;;;;7.53;6.03;;;25.40;99.90;;;;;;4993557;28;20050;-85
2022/08/15 12:44:51;;;;;;;9.50;6.63;;;25.60;99.90;;;;;;4993770;28;20038;-85
2022/08/15 12:47:17;;;;;;;10.52;6.72;;;25.70;99.90;;;;;;4991762;28;20313;-85
2022/08/15 12:49:44;;;;;;;12.65;9.25;;;25.90;99.90;;;;;;4993580;28;20461;-85
2022/08/15 12:52:11;;;;;;;15.60;8.52;;;26.00;99.90;;;;;;4976308;28;20121;-84
2022/08/15 12:54:37;;;;;;;10.02;9.13;;;26.20;99.90;;;;;;4993041;28;20054;-84
2022/08/15 12:57:04;;;;;;;12.95;9.38;;;26.30;99.90;;;;;;4993019;28;20391;-85
2022/08/15 12:59:31;;;;;;;15.48;10.85;;;26.30;99.90;;;;;;4997117;28;20045;-86
2022/08/15 13:01:57;;;;;;;13.65;11.27;;;26.30;99.90;;;;;;4995239;28;20479;-85
2022/08/15 13:04:25;;;;;;;14.82;11.25;;;26.30;99.90;;;;;;4996284;28;20046;-85
2022/08/15 13:06:57;;;;;;;14.07;8.88;;;26.30;99.90;;;;;;4996971;28;20053;-85
2022/08/15 13:09:27;;;;;;;9.93;8.90;;;26.30;99.90;;;;;;4996137;28;20054;-85
2022/08/15 13:11:54;;;;;;;12.55;10.50;;;26.30;99.90;;;;;;4997054;28;20041;-85
2022/08/15 13:14:19;;;;;;;14.20;10.93;;;26.30;99.90;;;;;;4980506;28;20086;-85
2022/08/15 13:16:47;;;;;;;16.92;9.60;;;26.40;99.90;;;;;;4995350;28;20081;-85